sensor_id;sensor_type;location;lat;lon;timestamp;P1;durP1;ratioP1;P2;durP2;ratioP2
54157;SDS011;40065;49.894;10.358;2023-04-01T00:03:32;4.18;;;0.88;;
54157;SDS011;40065;49.894;10.358;2023-04-01T00:08:35;6.10;;;0.80;;
54157;SDS011;40065;49.894;10.358;2023-04-01T00:13:36;3.72;;;0.80;;
54157;SDS011;40065;49.894;10.358;2023-04-01T00:18:38;6.00;;;1.90;;
54157;SDS011;40065;49.894;10.358;2023-04-01T00:23:40;3.75;;;1.00;;
54157;SDS011;40065;49.894;10.358;2023-04-01T00:28:42;9.68;;;1.02;;
54157;SDS011;40065;49.894;10.358;2023-04-01T00:33:44;6.32;;;0.95;;
54157;SDS011;40065;49.894;10.358;2023-04-01T00:38:47;2.67;;;0.85;;
54157;SDS011;40065;49.894;10.358;2023-04-01T00:43:49;4.95;;;1.00;;
54157;SDS011;40065;49.894;10.358;2023-04-01T00:48:53;2.22;;;0.63;;
54157;SDS011;40065;49.894;10.358;2023-04-01T00:53:57;4.15;;;0.88;;
54157;SDS011;40065;49.894;10.358;2023-04-01T00:59:13;2.87;;;0.63;;
54157;SDS011;40065;49.894;10.358;2023-04-01T01:04:24;4.63;;;0.80;;
54157;SDS011;40065;49.894;10.358;2023-04-01T01:09:31;2.13;;;0.60;;
54157;SDS011;40065;49.894;10.358;2023-04-01T01:25:27;3.65;;;0.70;;
54157;SDS011;40065;49.894;10.358;2023-04-01T01:35:58;3.33;;;0.80;;
54157;SDS011;40065;49.894;10.358;2023-04-01T01:41:06;3.15;;;0.90;;
54157;SDS011;40065;49.894;10.358;2023-04-01T01:46:13;1.67;;;0.50;;
54157;SDS011;40065;49.894;10.358;2023-04-01T01:51:22;2.78;;;0.63;;
54157;SDS011;40065;49.894;10.358;2023-04-01T01:56:26;3.85;;;0.70;;
54157;SDS011;40065;49.894;10.358;2023-04-01T02:01:31;4.80;;;0.75;;
54157;SDS011;40065;49.894;10.358;2023-04-01T02:06:46;5.03;;;0.70;;
54157;SDS011;40065;49.894;10.358;2023-04-01T02:11:59;4.30;;;0.70;;
54157;SDS011;40065;49.894;10.358;2023-04-01T02:17:11;4.25;;;0.70;;
54157;SDS011;40065;49.894;10.358;2023-04-01T02:22:18;1.92;;;0.50;;
54157;SDS011;40065;49.894;10.358;2023-04-01T02:27:23;4.38;;;0.77;;
54157;SDS011;40065;49.894;10.358;2023-04-01T02:32:25;5.07;;;0.70;;
54157;SDS011;40065;49.894;10.358;2023-04-01T02:37:28;7.85;;;1.10;;
54157;SDS011;40065;49.894;10.358;2023-04-01T02:42:33;7.05;;;0.98;;
54157;SDS011;40065;49.894;10.358;2023-04-01T02:47:35;4.00;;;0.80;;
54157;SDS011;40065;49.894;10.358;2023-04-01T02:52:37;6.15;;;0.90;;
54157;SDS011;40065;49.894;10.358;2023-04-01T02:57:39;5.07;;;1.00;;
54157;SDS011;40065;49.894;10.358;2023-04-01T03:02:41;7.60;;;0.85;;
54157;SDS011;40065;49.894;10.358;2023-04-01T03:07:43;5.38;;;0.90;;
54157;SDS011;40065;49.894;10.358;2023-04-01T03:12:45;6.22;;;0.90;;
54157;SDS011;40065;49.894;10.358;2023-04-01T03:17:47;4.35;;;0.80;;
54157;SDS011;40065;49.894;10.358;2023-04-01T03:22:49;5.95;;;0.73;;
54157;SDS011;40065;49.894;10.358;2023-04-01T03:27:51;5.15;;;0.82;;
54157;SDS011;40065;49.894;10.358;2023-04-01T03:32:53;3.13;;;0.77;;
54157;SDS011;40065;49.894;10.358;2023-04-01T03:37:55;3.05;;;0.63;;
54157;SDS011;40065;49.894;10.358;2023-04-01T03:42:57;4.70;;;0.90;;
54157;SDS011;40065;49.894;10.358;2023-04-01T03:47:58;4.88;;;1.05;;
54157;SDS011;40065;49.894;10.358;2023-04-01T03:53:00;6.78;;;2.00;;
54157;SDS011;40065;49.894;10.358;2023-04-01T03:58:03;4.40;;;0.90;;
54157;SDS011;40065;49.894;10.358;2023-04-01T04:03:05;5.80;;;1.25;;
54157;SDS011;40065;49.894;10.358;2023-04-01T04:08:09;4.67;;;1.07;;
54157;SDS011;40065;49.894;10.358;2023-04-01T04:13:11;4.03;;;1.15;;
54157;SDS011;40065;49.894;10.358;2023-04-01T04:18:20;3.05;;;0.70;;
54157;SDS011;40065;49.894;10.358;2023-04-01T04:23:22;3.70;;;0.75;;
54157;SDS011;40065;49.894;10.358;2023-04-01T04:28:24;4.20;;;0.70;;
54157;SDS011;40065;49.894;10.358;2023-04-01T04:33:29;3.83;;;0.80;;
54157;SDS011;40065;49.894;10.358;2023-04-01T04:38:31;3.83;;;0.65;;
54157;SDS011;40065;49.894;10.358;2023-04-01T04:43:33;5.50;;;0.88;;
54157;SDS011;40065;49.894;10.358;2023-04-01T04:48:35;2.85;;;0.60;;
54157;SDS011;40065;49.894;10.358;2023-04-01T04:53:37;5.13;;;1.27;;
54157;SDS011;40065;49.894;10.358;2023-04-01T04:58:39;1.30;;;0.40;;
54157;SDS011;40065;49.894;10.358;2023-04-01T05:03:44;5.45;;;0.80;;
54157;SDS011;40065;49.894;10.358;2023-04-01T05:08:46;3.63;;;1.05;;
54157;SDS011;40065;49.894;10.358;2023-04-01T05:13:48;1.75;;;0.47;;
54157;SDS011;40065;49.894;10.358;2023-04-01T05:18:51;3.38;;;1.23;;
54157;SDS011;40065;49.894;10.358;2023-04-01T05:23:53;3.00;;;0.60;;
54157;SDS011;40065;49.894;10.358;2023-04-01T05:28:55;2.88;;;0.52;;
54157;SDS011;40065;49.894;10.358;2023-04-01T05:33:57;0.88;;;0.30;;
54157;SDS011;40065;49.894;10.358;2023-04-01T05:38:59;2.38;;;0.45;;
54157;SDS011;40065;49.894;10.358;2023-04-01T05:44:03;2.70;;;0.63;;
54157;SDS011;40065;49.894;10.358;2023-04-01T05:49:15;2.00;;;0.40;;
54157;SDS011;40065;49.894;10.358;2023-04-01T05:54:17;2.00;;;0.70;;
54157;SDS011;40065;49.894;10.358;2023-04-01T05:59:19;2.90;;;0.82;;
54157;SDS011;40065;49.894;10.358;2023-04-01T06:04:21;1.83;;;0.32;;
54157;SDS011;40065;49.894;10.358;2023-04-01T06:09:26;3.85;;;0.60;;
54157;SDS011;40065;49.894;10.358;2023-04-01T06:14:37;3.83;;;0.70;;
54157;SDS011;40065;49.894;10.358;2023-04-01T06:20:08;3.08;;;0.60;;
54157;SDS011;40065;49.894;10.358;2023-04-01T06:30:43;4.00;;;0.50;;
54157;SDS011;40065;49.894;10.358;2023-04-01T06:36:06;2.47;;;0.40;;
54157;SDS011;40065;49.894;10.358;2023-04-01T06:41:21;4.00;;;0.70;;
54157;SDS011;40065;49.894;10.358;2023-04-01T06:46:40;5.10;;;0.60;;
54157;SDS011;40065;49.894;10.358;2023-04-01T06:57:45;4.07;;;0.50;;
54157;SDS011;40065;49.894;10.358;2023-04-01T07:02:54;5.13;;;0.45;;
54157;SDS011;40065;49.894;10.358;2023-04-01T07:08:01;2.20;;;0.40;;
54157;SDS011;40065;49.894;10.358;2023-04-01T07:13:07;2.05;;;0.40;;
54157;SDS011;40065;49.894;10.358;2023-04-01T07:23:56;4.03;;;0.60;;
54157;SDS011;40065;49.894;10.358;2023-04-01T07:29:12;2.40;;;0.52;;
54157;SDS011;40065;49.894;10.358;2023-04-01T07:39:41;2.50;;;0.40;;
54157;SDS011;40065;49.894;10.358;2023-04-01T07:55:56;2.50;;;0.90;;
54157;SDS011;40065;49.894;10.358;2023-04-01T08:01:02;2.72;;;0.60;;
54157;SDS011;40065;49.894;10.358;2023-04-01T08:06:43;3.88;;;0.60;;
54157;SDS011;40065;49.894;10.358;2023-04-01T08:23:02;2.03;;;0.50;;
54157;SDS011;40065;49.894;10.358;2023-04-01T08:33:42;7.85;;;1.70;;
54157;SDS011;40065;49.894;10.358;2023-04-01T08:44:15;5.15;;;1.10;;
54157;SDS011;40065;49.894;10.358;2023-04-01T08:49:33;3.92;;;1.40;;
54157;SDS011;40065;49.894;10.358;2023-04-01T08:55:19;4.03;;;0.80;;
54157;SDS011;40065;49.894;10.358;2023-04-01T09:00:54;2.97;;;0.80;;
54157;SDS011;40065;49.894;10.358;2023-04-01T09:11:35;2.65;;;0.68;;
54157;SDS011;40065;49.894;10.358;2023-04-01T09:17:09;3.45;;;0.50;;
54157;SDS011;40065;49.894;10.358;2023-04-01T09:38:42;3.08;;;1.02;;
54157;SDS011;40065;49.894;10.358;2023-04-01T09:49:32;3.63;;;0.40;;
54157;SDS011;40065;49.894;10.358;2023-04-01T10:44:40;1.75;;;0.55;;
54157;SDS011;40065;49.894;10.358;2023-04-01T10:50:17;1.48;;;0.60;;
54157;SDS011;40065;49.894;10.358;2023-04-01T11:36:20;1.45;;;0.38;;
54157;SDS011;40065;49.894;10.358;2023-04-01T11:41:30;0.70;;;0.30;;
54157;SDS011;40065;49.894;10.358;2023-04-01T12:08:31;0.60;;;0.30;;
54157;SDS011;40065;49.894;10.358;2023-04-01T12:30:36;1.27;;;0.50;;
54157;SDS011;40065;49.894;10.358;2023-04-01T12:46:59;1.70;;;0.50;;
54157;SDS011;40065;49.894;10.358;2023-04-01T12:57:52;2.20;;;0.65;;
54157;SDS011;40065;49.894;10.358;2023-04-01T13:08:57;1.40;;;0.63;;
54157;SDS011;40065;49.894;10.358;2023-04-01T13:19:50;1.55;;;0.43;;
54157;SDS011;40065;49.894;10.358;2023-04-01T13:25:24;1.42;;;0.50;;
54157;SDS011;40065;49.894;10.358;2023-04-01T13:30:40;1.00;;;0.40;;
54157;SDS011;40065;49.894;10.358;2023-04-01T13:52:01;1.90;;;0.43;;
54157;SDS011;40065;49.894;10.358;2023-04-01T14:29:51;1.48;;;0.82;;
54157;SDS011;40065;49.894;10.358;2023-04-01T14:40:52;2.00;;;0.90;;
54157;SDS011;40065;49.894;10.358;2023-04-01T14:51:36;1.80;;;0.90;;
54157;SDS011;40065;49.894;10.358;2023-04-01T14:56:41;1.95;;;0.70;;
54157;SDS011;40065;49.894;10.358;2023-04-01T15:01:55;0.88;;;0.70;;
54157;SDS011;40065;49.894;10.358;2023-04-01T15:07:20;1.38;;;0.80;;
54157;SDS011;40065;49.894;10.358;2023-04-01T15:12:35;1.60;;;0.65;;
54157;SDS011;40065;49.894;10.358;2023-04-01T15:28:17;1.42;;;0.60;;
54157;SDS011;40065;49.894;10.358;2023-04-01T15:59:37;2.40;;;0.93;;
54157;SDS011;40065;49.894;10.358;2023-04-01T16:09:56;1.60;;;0.70;;
54157;SDS011;40065;49.894;10.358;2023-04-01T16:25:42;1.35;;;0.80;;
54157;SDS011;40065;49.894;10.358;2023-04-01T16:30:57;1.70;;;0.93;;
54157;SDS011;40065;49.894;10.358;2023-04-01T16:36:23;1.40;;;0.90;;
54157;SDS011;40065;49.894;10.358;2023-04-01T16:41:49;4.38;;;1.13;;
54157;SDS011;40065;49.894;10.358;2023-04-01T16:47:15;1.35;;;0.70;;
54157;SDS011;40065;49.894;10.358;2023-04-01T16:52:35;1.63;;;0.82;;
54157;SDS011;40065;49.894;10.358;2023-04-01T16:58:07;2.08;;;0.88;;
54157;SDS011;40065;49.894;10.358;2023-04-01T17:03:20;2.88;;;1.00;;
54157;SDS011;40065;49.894;10.358;2023-04-01T17:35:27;1.60;;;0.90;;
54157;SDS011;40065;49.894;10.358;2023-04-01T17:46:23;1.80;;;0.98;;
54157;SDS011;40065;49.894;10.358;2023-04-01T17:51:58;1.33;;;0.90;;
54157;SDS011;40065;49.894;10.358;2023-04-01T18:02:59;2.88;;;1.10;;
54157;SDS011;40065;49.894;10.358;2023-04-01T18:13:24;1.58;;;1.05;;
54157;SDS011;40065;49.894;10.358;2023-04-01T18:23:47;2.30;;;1.27;;
54157;SDS011;40065;49.894;10.358;2023-04-01T18:39:52;3.97;;;2.35;;
54157;SDS011;40065;49.894;10.358;2023-04-01T18:45:09;1.95;;;0.80;;
54157;SDS011;40065;49.894;10.358;2023-04-01T18:50:26;1.23;;;0.80;;
54157;SDS011;40065;49.894;10.358;2023-04-01T18:55:35;2.47;;;0.98;;
54157;SDS011;40065;49.894;10.358;2023-04-01T19:06:22;1.67;;;1.10;;
54157;SDS011;40065;49.894;10.358;2023-04-01T19:11:32;2.20;;;1.00;;
54157;SDS011;40065;49.894;10.358;2023-04-01T19:17:02;1.60;;;0.98;;
54157;SDS011;40065;49.894;10.358;2023-04-01T19:22:22;1.67;;;0.93;;
54157;SDS011;40065;49.894;10.358;2023-04-01T19:27:42;2.70;;;1.10;;
54157;SDS011;40065;49.894;10.358;2023-04-01T19:53:59;1.70;;;1.00;;
54157;SDS011;40065;49.894;10.358;2023-04-01T19:59:10;4.45;;;1.48;;
54157;SDS011;40065;49.894;10.358;2023-04-01T20:04:20;2.72;;;1.27;;
54157;SDS011;40065;49.894;10.358;2023-04-01T20:14:46;0.77;;;0.40;;
54157;SDS011;40065;49.894;10.358;2023-04-01T20:46:44;1.85;;;0.90;;
54157;SDS011;40065;49.894;10.358;2023-04-01T20:51:53;1.20;;;0.45;;
54157;SDS011;40065;49.894;10.358;2023-04-01T20:57:11;1.08;;;0.70;;
54157;SDS011;40065;49.894;10.358;2023-04-01T21:02:32;1.20;;;0.60;;
54157;SDS011;40065;49.894;10.358;2023-04-01T21:13:15;1.75;;;0.80;;
54157;SDS011;40065;49.894;10.358;2023-04-01T21:29:18;1.23;;;0.82;;
54157;SDS011;40065;49.894;10.358;2023-04-01T21:34:40;4.22;;;2.10;;
54157;SDS011;40065;49.894;10.358;2023-04-01T21:45:37;4.38;;;2.17;;
54157;SDS011;40065;49.894;10.358;2023-04-01T22:07:17;6.03;;;2.58;;
54157;SDS011;40065;49.894;10.358;2023-04-01T22:12:34;4.82;;;1.90;;
54157;SDS011;40065;49.894;10.358;2023-04-01T22:18:08;4.18;;;2.50;;
54157;SDS011;40065;49.894;10.358;2023-04-01T22:23:23;4.25;;;2.33;;
54157;SDS011;40065;49.894;10.358;2023-04-01T22:28:32;2.95;;;2.10;;
54157;SDS011;40065;49.894;10.358;2023-04-01T22:33:56;5.93;;;2.35;;
54157;SDS011;40065;49.894;10.358;2023-04-01T22:49:57;4.40;;;2.28;;
54157;SDS011;40065;49.894;10.358;2023-04-01T23:00:22;2.88;;;1.85;;
54157;SDS011;40065;49.894;10.358;2023-04-01T23:05:35;3.22;;;2.03;;
54157;SDS011;40065;49.894;10.358;2023-04-01T23:10:45;5.85;;;2.00;;
54157;SDS011;40065;49.894;10.358;2023-04-01T23:15:53;3.35;;;1.83;;
54157;SDS011;40065;49.894;10.358;2023-04-01T23:36:41;3.03;;;1.80;;
54157;SDS011;40065;49.894;10.358;2023-04-01T23:41:45;2.70;;;1.60;;
54157;SDS011;40065;49.894;10.358;2023-04-01T23:46:47;2.20;;;1.42;;
54157;SDS011;40065;49.894;10.358;2023-04-01T23:51:52;2.90;;;1.70;;
54157;SDS011;40065;49.894;10.358;2023-04-01T23:56:59;2.60;;;1.80;;
